sensor_id;sensor_type;location;lat;lon;timestamp;P1;durP1;ratioP1;P2;durP2;ratioP2
4674;SDS011;2351;50.812;12.872;2023-12-29T00:01:31;2.60;;;1.30;;
4674;SDS011;2351;50.812;12.872;2023-12-29T00:04:03;1.70;;;1.60;;
4674;SDS011;2351;50.812;12.872;2023-12-29T00:06:37;2.13;;;1.77;;
4674;SDS011;2351;50.812;12.872;2023-12-29T00:09:09;2.90;;;1.70;;
4674;SDS011;2351;50.812;12.872;2023-12-29T00:11:41;1.33;;;1.20;;
4674;SDS011;2351;50.812;12.872;2023-12-29T00:14:12;1.70;;;1.60;;
4674;SDS011;2351;50.812;12.872;2023-12-29T00:16:45;2.57;;;1.60;;
4674;SDS011;2351;50.812;12.872;2023-12-29T00:19:17;1.80;;;1.33;;
4674;SDS011;2351;50.812;12.872;2023-12-29T00:21:49;1.37;;;1.27;;
4674;SDS011;2351;50.812;12.872;2023-12-29T00:24:20;1.90;;;1.30;;
4674;SDS011;2351;50.812;12.872;2023-12-29T00:26:52;1.10;;;1.10;;
4674;SDS011;2351;50.812;12.872;2023-12-29T00:29:24;0.87;;;0.83;;
4674;SDS011;2351;50.812;12.872;2023-12-29T00:31:57;2.00;;;1.23;;
4674;SDS011;2351;50.812;12.872;2023-12-29T00:34:28;2.30;;;1.10;;
4674;SDS011;2351;50.812;12.872;2023-12-29T00:37:00;1.20;;;1.10;;
4674;SDS011;2351;50.812;12.872;2023-12-29T00:39:32;0.93;;;0.90;;
4674;SDS011;2351;50.812;12.872;2023-12-29T00:42:08;1.10;;;1.00;;
4674;SDS011;2351;50.812;12.872;2023-12-29T00:44:40;1.10;;;1.03;;
4674;SDS011;2351;50.812;12.872;2023-12-29T00:47:13;1.17;;;1.07;;
4674;SDS011;2351;50.812;12.872;2023-12-29T00:49:45;0.93;;;0.90;;
4674;SDS011;2351;50.812;12.872;2023-12-29T00:52:17;0.90;;;0.80;;
4674;SDS011;2351;50.812;12.872;2023-12-29T00:54:48;1.00;;;0.90;;
4674;SDS011;2351;50.812;12.872;2023-12-29T00:57:20;1.33;;;1.00;;
4674;SDS011;2351;50.812;12.872;2023-12-29T00:59:52;0.67;;;0.60;;
4674;SDS011;2351;50.812;12.872;2023-12-29T01:02:25;4.93;;;0.90;;
4674;SDS011;2351;50.812;12.872;2023-12-29T01:04:57;1.10;;;1.00;;
4674;SDS011;2351;50.812;12.872;2023-12-29T01:07:28;1.20;;;1.20;;
4674;SDS011;2351;50.812;12.872;2023-12-29T01:10:00;0.93;;;0.93;;
4674;SDS011;2351;50.812;12.872;2023-12-29T01:12:32;1.63;;;0.80;;
4674;SDS011;2351;50.812;12.872;2023-12-29T01:15:04;1.20;;;1.10;;
4674;SDS011;2351;50.812;12.872;2023-12-29T01:17:37;0.77;;;0.77;;
4674;SDS011;2351;50.812;12.872;2023-12-29T01:20:09;0.80;;;0.80;;
4674;SDS011;2351;50.812;12.872;2023-12-29T01:22:41;0.70;;;0.70;;
4674;SDS011;2351;50.812;12.872;2023-12-29T01:25:13;1.10;;;1.00;;
4674;SDS011;2351;50.812;12.872;2023-12-29T01:27:45;0.67;;;0.60;;
4674;SDS011;2351;50.812;12.872;2023-12-29T01:30:17;0.80;;;0.80;;
4674;SDS011;2351;50.812;12.872;2023-12-29T01:32:50;0.87;;;0.87;;
4674;SDS011;2351;50.812;12.872;2023-12-29T01:35:21;0.93;;;0.93;;
4674;SDS011;2351;50.812;12.872;2023-12-29T01:37:53;1.10;;;1.10;;
4674;SDS011;2351;50.812;12.872;2023-12-29T01:40:26;0.90;;;0.90;;
4674;SDS011;2351;50.812;12.872;2023-12-29T01:42:58;1.23;;;1.00;;
4674;SDS011;2351;50.812;12.872;2023-12-29T01:45:30;0.70;;;0.70;;
4674;SDS011;2351;50.812;12.872;2023-12-29T01:48:03;0.93;;;0.93;;
4674;SDS011;2351;50.812;12.872;2023-12-29T01:50:35;0.67;;;0.67;;
4674;SDS011;2351;50.812;12.872;2023-12-29T01:53:07;1.53;;;0.97;;
4674;SDS011;2351;50.812;12.872;2023-12-29T01:55:39;0.93;;;0.93;;
4674;SDS011;2351;50.812;12.872;2023-12-29T01:58:11;4.00;;;0.70;;
4674;SDS011;2351;50.812;12.872;2023-12-29T02:00:43;1.13;;;1.10;;
4674;SDS011;2351;50.812;12.872;2023-12-29T02:03:16;0.63;;;0.63;;
4674;SDS011;2351;50.812;12.872;2023-12-29T02:05:48;0.90;;;0.90;;
4674;SDS011;2351;50.812;12.872;2023-12-29T02:08:21;0.57;;;0.57;;
4674;SDS011;2351;50.812;12.872;2023-12-29T02:10:53;0.50;;;0.50;;
4674;SDS011;2351;50.812;12.872;2023-12-29T02:13:26;1.17;;;1.07;;
4674;SDS011;2351;50.812;12.872;2023-12-29T02:15:59;0.70;;;0.67;;
4674;SDS011;2351;50.812;12.872;2023-12-29T02:18:39;0.60;;;0.60;;
4674;SDS011;2351;50.812;12.872;2023-12-29T02:21:16;0.60;;;0.60;;
4674;SDS011;2351;50.812;12.872;2023-12-29T02:23:48;0.90;;;0.90;;
4674;SDS011;2351;50.812;12.872;2023-12-29T02:26:22;1.00;;;0.80;;
4674;SDS011;2351;50.812;12.872;2023-12-29T02:29:00;0.50;;;0.50;;
4674;SDS011;2351;50.812;12.872;2023-12-29T02:31:35;0.70;;;0.70;;
4674;SDS011;2351;50.812;12.872;2023-12-29T02:34:11;0.70;;;0.70;;
4674;SDS011;2351;50.812;12.872;2023-12-29T02:36:45;0.70;;;0.60;;
4674;SDS011;2351;50.812;12.872;2023-12-29T02:39:18;0.80;;;0.80;;
4674;SDS011;2351;50.812;12.872;2023-12-29T02:41:52;0.53;;;0.53;;
4674;SDS011;2351;50.812;12.872;2023-12-29T02:44:24;0.50;;;0.50;;
4674;SDS011;2351;50.812;12.872;2023-12-29T02:46:55;0.70;;;0.70;;
4674;SDS011;2351;50.812;12.872;2023-12-29T02:49:27;0.93;;;0.60;;
4674;SDS011;2351;50.812;12.872;2023-12-29T02:51:59;0.70;;;0.70;;
4674;SDS011;2351;50.812;12.872;2023-12-29T02:54:31;1.00;;;0.77;;
4674;SDS011;2351;50.812;12.872;2023-12-29T02:57:04;0.90;;;0.90;;
4674;SDS011;2351;50.812;12.872;2023-12-29T02:59:36;0.80;;;0.80;;
4674;SDS011;2351;50.812;12.872;2023-12-29T03:02:08;1.73;;;0.70;;
4674;SDS011;2351;50.812;12.872;2023-12-29T03:04:40;1.03;;;1.03;;
4674;SDS011;2351;50.812;12.872;2023-12-29T03:07:11;1.10;;;1.10;;
4674;SDS011;2351;50.812;12.872;2023-12-29T03:09:43;0.90;;;0.90;;
4674;SDS011;2351;50.812;12.872;2023-12-29T03:12:16;0.97;;;0.83;;
4674;SDS011;2351;50.812;12.872;2023-12-29T03:14:48;1.27;;;1.03;;
4674;SDS011;2351;50.812;12.872;2023-12-29T03:17:19;1.57;;;0.90;;
4674;SDS011;2351;50.812;12.872;2023-12-29T03:19:51;1.20;;;1.03;;
4674;SDS011;2351;50.812;12.872;2023-12-29T03:22:23;0.90;;;0.90;;
4674;SDS011;2351;50.812;12.872;2023-12-29T03:24:55;1.07;;;1.00;;
4674;SDS011;2351;50.812;12.872;2023-12-29T03:27:28;0.87;;;0.83;;
4674;SDS011;2351;50.812;12.872;2023-12-29T03:29:59;0.80;;;0.80;;
4674;SDS011;2351;50.812;12.872;2023-12-29T03:32:31;1.30;;;1.20;;
4674;SDS011;2351;50.812;12.872;2023-12-29T03:35:03;1.20;;;1.10;;
4674;SDS011;2351;50.812;12.872;2023-12-29T03:37:35;0.93;;;0.93;;
4674;SDS011;2351;50.812;12.872;2023-12-29T03:40:07;1.27;;;1.17;;
4674;SDS011;2351;50.812;12.872;2023-12-29T03:42:41;1.50;;;1.40;;
4674;SDS011;2351;50.812;12.872;2023-12-29T03:45:13;1.37;;;1.27;;
4674;SDS011;2351;50.812;12.872;2023-12-29T03:47:45;3.40;;;1.50;;
4674;SDS011;2351;50.812;12.872;2023-12-29T03:50:17;1.60;;;1.50;;
4674;SDS011;2351;50.812;12.872;2023-12-29T03:52:48;2.87;;;1.87;;
4674;SDS011;2351;50.812;12.872;2023-12-29T03:55:20;1.47;;;1.33;;
4674;SDS011;2351;50.812;12.872;2023-12-29T03:57:53;2.50;;;1.30;;
4674;SDS011;2351;50.812;12.872;2023-12-29T04:00:25;1.23;;;1.13;;
4674;SDS011;2351;50.812;12.872;2023-12-29T04:02:56;1.33;;;1.23;;
4674;SDS011;2351;50.812;12.872;2023-12-29T04:05:28;1.43;;;0.90;;
4674;SDS011;2351;50.812;12.872;2023-12-29T04:08:00;1.10;;;1.00;;
4674;SDS011;2351;50.812;12.872;2023-12-29T04:10:31;2.63;;;1.40;;
4674;SDS011;2351;50.812;12.872;2023-12-29T04:13:04;2.23;;;1.73;;
4674;SDS011;2351;50.812;12.872;2023-12-29T04:15:36;1.60;;;1.50;;
4674;SDS011;2351;50.812;12.872;2023-12-29T04:18:08;2.57;;;1.40;;
4674;SDS011;2351;50.812;12.872;2023-12-29T04:20:39;1.53;;;1.43;;
4674;SDS011;2351;50.812;12.872;2023-12-29T04:23:11;3.80;;;1.43;;
4674;SDS011;2351;50.812;12.872;2023-12-29T04:25:43;0.90;;;0.80;;
4674;SDS011;2351;50.812;12.872;2023-12-29T04:28:17;1.20;;;1.10;;
4674;SDS011;2351;50.812;12.872;2023-12-29T04:30:49;2.40;;;1.20;;
4674;SDS011;2351;50.812;12.872;2023-12-29T04:33:20;1.27;;;1.20;;
4674;SDS011;2351;50.812;12.872;2023-12-29T04:35:52;1.37;;;1.27;;
4674;SDS011;2351;50.812;12.872;2023-12-29T04:38:24;1.30;;;1.20;;
4674;SDS011;2351;50.812;12.872;2023-12-29T04:40:55;3.27;;;1.37;;
4674;SDS011;2351;50.812;12.872;2023-12-29T04:43:28;1.37;;;1.20;;
4674;SDS011;2351;50.812;12.872;2023-12-29T04:46:00;1.53;;;1.43;;
4674;SDS011;2351;50.812;12.872;2023-12-29T04:48:32;2.63;;;1.30;;
4674;SDS011;2351;50.812;12.872;2023-12-29T04:51:04;1.33;;;1.23;;
4674;SDS011;2351;50.812;12.872;2023-12-29T04:53:35;2.40;;;1.47;;
4674;SDS011;2351;50.812;12.872;2023-12-29T04:56:07;1.20;;;1.10;;
4674;SDS011;2351;50.812;12.872;2023-12-29T04:58:40;1.70;;;1.60;;
4674;SDS011;2351;50.812;12.872;2023-12-29T05:01:12;2.13;;;1.93;;
4674;SDS011;2351;50.812;12.872;2023-12-29T05:03:43;1.70;;;1.60;;
4674;SDS011;2351;50.812;12.872;2023-12-29T05:06:15;1.60;;;1.50;;
4674;SDS011;2351;50.812;12.872;2023-12-29T05:08:47;1.50;;;1.40;;
4674;SDS011;2351;50.812;12.872;2023-12-29T05:11:18;2.20;;;1.63;;
4674;SDS011;2351;50.812;12.872;2023-12-29T05:13:51;2.23;;;2.03;;
4674;SDS011;2351;50.812;12.872;2023-12-29T05:16:23;1.87;;;1.70;;
4674;SDS011;2351;50.812;12.872;2023-12-29T05:18:55;2.00;;;1.77;;
4674;SDS011;2351;50.812;12.872;2023-12-29T05:21:26;1.43;;;1.33;;
4674;SDS011;2351;50.812;12.872;2023-12-29T05:23:58;3.03;;;2.23;;
4674;SDS011;2351;50.812;12.872;2023-12-29T05:26:30;1.70;;;1.60;;
4674;SDS011;2351;50.812;12.872;2023-12-29T05:29:03;2.00;;;1.80;;
4674;SDS011;2351;50.812;12.872;2023-12-29T05:31:35;2.13;;;1.37;;
4674;SDS011;2351;50.812;12.872;2023-12-29T05:34:06;1.43;;;1.33;;
4674;SDS011;2351;50.812;12.872;2023-12-29T05:36:38;2.03;;;1.20;;
4674;SDS011;2351;50.812;12.872;2023-12-29T05:39:10;2.17;;;1.97;;
4674;SDS011;2351;50.812;12.872;2023-12-29T05:41:42;1.57;;;1.47;;
4674;SDS011;2351;50.812;12.872;2023-12-29T05:44:15;1.60;;;1.50;;
4674;SDS011;2351;50.812;12.872;2023-12-29T05:46:47;1.20;;;1.20;;
4674;SDS011;2351;50.812;12.872;2023-12-29T05:49:18;2.13;;;1.93;;
4674;SDS011;2351;50.812;12.872;2023-12-29T05:51:50;2.80;;;1.40;;
4674;SDS011;2351;50.812;12.872;2023-12-29T05:54:22;5.67;;;1.70;;
4674;SDS011;2351;50.812;12.872;2023-12-29T05:56:54;1.80;;;1.27;;
4674;SDS011;2351;50.812;12.872;2023-12-29T05:59:28;1.30;;;1.03;;
4674;SDS011;2351;50.812;12.872;2023-12-29T06:01:59;1.87;;;1.30;;
4674;SDS011;2351;50.812;12.872;2023-12-29T06:04:31;1.27;;;1.17;;
4674;SDS011;2351;50.812;12.872;2023-12-29T06:07:03;2.70;;;1.80;;
4674;SDS011;2351;50.812;12.872;2023-12-29T06:09:35;2.23;;;1.50;;
4674;SDS011;2351;50.812;12.872;2023-12-29T06:12:07;1.63;;;1.30;;
4674;SDS011;2351;50.812;12.872;2023-12-29T06:14:40;1.37;;;1.23;;
4674;SDS011;2351;50.812;12.872;2023-12-29T06:17:12;1.60;;;1.50;;
4674;SDS011;2351;50.812;12.872;2023-12-29T06:19:44;1.80;;;1.70;;
4674;SDS011;2351;50.812;12.872;2023-12-29T06:22:16;1.93;;;1.70;;
4674;SDS011;2351;50.812;12.872;2023-12-29T06:24:47;1.50;;;1.40;;
4674;SDS011;2351;50.812;12.872;2023-12-29T06:27:19;1.57;;;1.47;;
4674;SDS011;2351;50.812;12.872;2023-12-29T06:29:52;1.87;;;1.53;;
4674;SDS011;2351;50.812;12.872;2023-12-29T06:32:24;1.80;;;1.50;;
4674;SDS011;2351;50.812;12.872;2023-12-29T06:34:56;5.40;;;1.97;;
4674;SDS011;2351;50.812;12.872;2023-12-29T06:37:27;2.17;;;1.60;;
4674;SDS011;2351;50.812;12.872;2023-12-29T06:39:59;1.83;;;1.40;;
4674;SDS011;2351;50.812;12.872;2023-12-29T06:42:31;1.60;;;1.50;;
4674;SDS011;2351;50.812;12.872;2023-12-29T06:45:05;1.70;;;1.50;;
4674;SDS011;2351;50.812;12.872;2023-12-29T06:47:39;1.60;;;1.50;;
4674;SDS011;2351;50.812;12.872;2023-12-29T06:50:11;2.03;;;1.70;;
4674;SDS011;2351;50.812;12.872;2023-12-29T06:52:43;3.43;;;1.53;;
4674;SDS011;2351;50.812;12.872;2023-12-29T06:55:15;1.93;;;1.40;;
4674;SDS011;2351;50.812;12.872;2023-12-29T06:57:47;4.43;;;1.90;;
4674;SDS011;2351;50.812;12.872;2023-12-29T07:00:20;1.80;;;1.33;;
4674;SDS011;2351;50.812;12.872;2023-12-29T07:02:52;9.40;;;2.03;;
4674;SDS011;2351;50.812;12.872;2023-12-29T07:05:23;2.30;;;2.10;;
4674;SDS011;2351;50.812;12.872;2023-12-29T07:07:55;2.17;;;1.97;;
4674;SDS011;2351;50.812;12.872;2023-12-29T07:10:27;4.23;;;1.60;;
4674;SDS011;2351;50.812;12.872;2023-12-29T07:12:59;6.57;;;1.83;;
4674;SDS011;2351;50.812;12.872;2023-12-29T07:15:32;2.30;;;1.80;;
4674;SDS011;2351;50.812;12.872;2023-12-29T07:18:04;2.23;;;2.03;;
4674;SDS011;2351;50.812;12.872;2023-12-29T07:20:36;1.70;;;1.60;;
4674;SDS011;2351;50.812;12.872;2023-12-29T07:23:08;1.50;;;1.40;;
4674;SDS011;2351;50.812;12.872;2023-12-29T07:25:40;1.67;;;1.57;;
4674;SDS011;2351;50.812;12.872;2023-12-29T07:28:11;1.60;;;1.50;;
4674;SDS011;2351;50.812;12.872;2023-12-29T07:30:44;3.57;;;1.80;;
4674;SDS011;2351;50.812;12.872;2023-12-29T07:33:16;3.00;;;1.50;;
4674;SDS011;2351;50.812;12.872;2023-12-29T07:35:48;2.43;;;1.60;;
4674;SDS011;2351;50.812;12.872;2023-12-29T07:38:20;1.30;;;1.20;;
4674;SDS011;2351;50.812;12.872;2023-12-29T07:40:52;1.87;;;1.13;;
4674;SDS011;2351;50.812;12.872;2023-12-29T07:43:23;2.03;;;1.40;;
4674;SDS011;2351;50.812;12.872;2023-12-29T07:45:56;2.87;;;1.80;;
4674;SDS011;2351;50.812;12.872;2023-12-29T07:48:28;2.70;;;1.70;;
4674;SDS011;2351;50.812;12.872;2023-12-29T07:51:03;1.43;;;1.33;;
4674;SDS011;2351;50.812;12.872;2023-12-29T07:53:36;2.30;;;1.50;;
4674;SDS011;2351;50.812;12.872;2023-12-29T07:56:08;2.37;;;2.00;;
4674;SDS011;2351;50.812;12.872;2023-12-29T07:58:42;4.43;;;1.10;;
4674;SDS011;2351;50.812;12.872;2023-12-29T08:01:15;1.43;;;1.33;;
4674;SDS011;2351;50.812;12.872;2023-12-29T08:03:47;2.83;;;1.63;;
4674;SDS011;2351;50.812;12.872;2023-12-29T08:06:19;2.43;;;1.63;;
4674;SDS011;2351;50.812;12.872;2023-12-29T08:08:50;1.70;;;1.10;;
4674;SDS011;2351;50.812;12.872;2023-12-29T08:11:22;1.87;;;1.67;;
4674;SDS011;2351;50.812;12.872;2023-12-29T08:13:54;1.60;;;1.50;;
4674;SDS011;2351;50.812;12.872;2023-12-29T08:16:27;3.07;;;1.80;;
4674;SDS011;2351;50.812;12.872;2023-12-29T08:18:58;1.37;;;1.33;;
4674;SDS011;2351;50.812;12.872;2023-12-29T08:21:30;2.10;;;1.23;;
4674;SDS011;2351;50.812;12.872;2023-12-29T08:24:02;9.00;;;1.80;;
4674;SDS011;2351;50.812;12.872;2023-12-29T08:26:34;3.27;;;2.10;;
4674;SDS011;2351;50.812;12.872;2023-12-29T08:29:05;3.23;;;1.43;;
4674;SDS011;2351;50.812;12.872;2023-12-29T08:31:39;1.20;;;1.10;;
4674;SDS011;2351;50.812;12.872;2023-12-29T08:34:10;3.10;;;1.83;;
4674;SDS011;2351;50.812;12.872;2023-12-29T08:36:42;3.50;;;2.17;;
4674;SDS011;2351;50.812;12.872;2023-12-29T08:39:14;2.30;;;1.40;;
4674;SDS011;2351;50.812;12.872;2023-12-29T08:41:46;3.00;;;1.60;;
4674;SDS011;2351;50.812;12.872;2023-12-29T08:44:19;3.30;;;1.40;;
4674;SDS011;2351;50.812;12.872;2023-12-29T08:46:52;1.40;;;1.23;;
4674;SDS011;2351;50.812;12.872;2023-12-29T08:49:24;2.80;;;1.23;;
4674;SDS011;2351;50.812;12.872;2023-12-29T08:51:55;1.73;;;1.23;;
4674;SDS011;2351;50.812;12.872;2023-12-29T08:54:28;1.97;;;1.40;;
4674;SDS011;2351;50.812;12.872;2023-12-29T08:57:00;3.53;;;1.47;;
4674;SDS011;2351;50.812;12.872;2023-12-29T08:59:31;2.83;;;1.83;;
4674;SDS011;2351;50.812;12.872;2023-12-29T09:02:04;2.70;;;1.70;;
4674;SDS011;2351;50.812;12.872;2023-12-29T09:04:36;2.60;;;1.60;;
4674;SDS011;2351;50.812;12.872;2023-12-29T09:07:08;1.60;;;1.50;;
4674;SDS011;2351;50.812;12.872;2023-12-29T09:09:40;3.10;;;1.60;;
4674;SDS011;2351;50.812;12.872;2023-12-29T09:12:11;3.23;;;1.60;;
4674;SDS011;2351;50.812;12.872;2023-12-29T09:14:43;1.43;;;1.33;;
4674;SDS011;2351;50.812;12.872;2023-12-29T09:17:16;3.30;;;1.60;;
4674;SDS011;2351;50.812;12.872;2023-12-29T09:19:48;1.60;;;1.50;;
4674;SDS011;2351;50.812;12.872;2023-12-29T09:22:19;3.73;;;1.67;;
4674;SDS011;2351;50.812;12.872;2023-12-29T09:24:51;2.30;;;1.63;;
4674;SDS011;2351;50.812;12.872;2023-12-29T09:27:23;2.23;;;1.60;;
4674;SDS011;2351;50.812;12.872;2023-12-29T09:29:54;3.77;;;1.73;;
4674;SDS011;2351;50.812;12.872;2023-12-29T09:32:27;3.43;;;1.50;;
4674;SDS011;2351;50.812;12.872;2023-12-29T09:34:59;2.10;;;1.90;;
4674;SDS011;2351;50.812;12.872;2023-12-29T09:37:31;1.60;;;1.27;;
4674;SDS011;2351;50.812;12.872;2023-12-29T09:40:03;1.23;;;1.13;;
4674;SDS011;2351;50.812;12.872;2023-12-29T09:42:35;1.60;;;1.50;;
4674;SDS011;2351;50.812;12.872;2023-12-29T09:45:09;2.07;;;1.83;;
4674;SDS011;2351;50.812;12.872;2023-12-29T09:47:43;2.53;;;1.50;;
4674;SDS011;2351;50.812;12.872;2023-12-29T09:50:15;1.50;;;1.40;;
4674;SDS011;2351;50.812;12.872;2023-12-29T09:52:49;2.00;;;1.80;;
4674;SDS011;2351;50.812;12.872;2023-12-29T09:55:21;3.70;;;2.03;;
4674;SDS011;2351;50.812;12.872;2023-12-29T09:57:54;2.77;;;2.00;;
4674;SDS011;2351;50.812;12.872;2023-12-29T10:00:26;4.53;;;1.60;;
4674;SDS011;2351;50.812;12.872;2023-12-29T10:03:00;1.87;;;1.37;;
4674;SDS011;2351;50.812;12.872;2023-12-29T10:05:32;5.40;;;1.70;;
4674;SDS011;2351;50.812;12.872;2023-12-29T10:08:04;1.93;;;1.30;;
4674;SDS011;2351;50.812;12.872;2023-12-29T10:10:38;1.70;;;1.60;;
4674;SDS011;2351;50.812;12.872;2023-12-29T10:13:13;2.17;;;1.50;;
4674;SDS011;2351;50.812;12.872;2023-12-29T10:15:47;3.50;;;1.40;;
4674;SDS011;2351;50.812;12.872;2023-12-29T10:18:27;1.90;;;1.47;;
4674;SDS011;2351;50.812;12.872;2023-12-29T10:21:06;2.17;;;1.53;;
4674;SDS011;2351;50.812;12.872;2023-12-29T10:23:47;1.47;;;1.30;;
4674;SDS011;2351;50.812;12.872;2023-12-29T10:26:26;5.43;;;1.90;;
4674;SDS011;2351;50.812;12.872;2023-12-29T10:28:58;2.97;;;1.83;;
4674;SDS011;2351;50.812;12.872;2023-12-29T10:31:30;3.43;;;1.80;;
4674;SDS011;2351;50.812;12.872;2023-12-29T10:34:18;6.30;;;2.00;;
4674;SDS011;2351;50.812;12.872;2023-12-29T10:36:50;2.73;;;1.70;;
4674;SDS011;2351;50.812;12.872;2023-12-29T10:39:21;1.60;;;1.50;;
4674;SDS011;2351;50.812;12.872;2023-12-29T10:42:02;1.23;;;1.10;;
4674;SDS011;2351;50.812;12.872;2023-12-29T10:44:35;1.63;;;1.53;;
4674;SDS011;2351;50.812;12.872;2023-12-29T10:47:08;3.13;;;1.73;;
4674;SDS011;2351;50.812;12.872;2023-12-29T10:49:42;1.90;;;1.70;;
4674;SDS011;2351;50.812;12.872;2023-12-29T10:52:13;1.73;;;1.50;;
4674;SDS011;2351;50.812;12.872;2023-12-29T10:54:46;1.53;;;1.43;;
4674;SDS011;2351;50.812;12.872;2023-12-29T10:57:17;4.00;;;1.47;;
4674;SDS011;2351;50.812;12.872;2023-12-29T10:59:54;3.97;;;1.70;;
4674;SDS011;2351;50.812;12.872;2023-12-29T11:02:26;3.23;;;1.90;;
4674;SDS011;2351;50.812;12.872;2023-12-29T11:05:03;3.10;;;1.73;;
4674;SDS011;2351;50.812;12.872;2023-12-29T11:07:37;1.60;;;1.50;;
4674;SDS011;2351;50.812;12.872;2023-12-29T11:10:09;6.33;;;1.43;;
4674;SDS011;2351;50.812;12.872;2023-12-29T11:12:41;4.20;;;1.40;;
4674;SDS011;2351;50.812;12.872;2023-12-29T11:15:14;4.73;;;2.10;;
4674;SDS011;2351;50.812;12.872;2023-12-29T11:17:46;7.67;;;1.67;;
4674;SDS011;2351;50.812;12.872;2023-12-29T11:20:23;2.03;;;1.50;;
4674;SDS011;2351;50.812;12.872;2023-12-29T11:22:56;4.50;;;1.80;;
4674;SDS011;2351;50.812;12.872;2023-12-29T11:25:28;4.93;;;1.20;;
4674;SDS011;2351;50.812;12.872;2023-12-29T11:28:00;2.30;;;1.50;;
4674;SDS011;2351;50.812;12.872;2023-12-29T11:30:32;2.00;;;1.50;;
4674;SDS011;2351;50.812;12.872;2023-12-29T11:33:06;4.10;;;1.43;;
4674;SDS011;2351;50.812;12.872;2023-12-29T11:35:43;2.53;;;1.50;;
4674;SDS011;2351;50.812;12.872;2023-12-29T11:38:29;4.50;;;1.43;;
4674;SDS011;2351;50.812;12.872;2023-12-29T11:41:13;1.60;;;1.37;;
4674;SDS011;2351;50.812;12.872;2023-12-29T11:43:56;1.33;;;1.23;;
4674;SDS011;2351;50.812;12.872;2023-12-29T11:46:35;3.27;;;1.47;;
4674;SDS011;2351;50.812;12.872;2023-12-29T11:49:07;2.03;;;1.40;;
4674;SDS011;2351;50.812;12.872;2023-12-29T11:51:40;2.53;;;1.40;;
4674;SDS011;2351;50.812;12.872;2023-12-29T11:54:21;4.00;;;1.33;;
4674;SDS011;2351;50.812;12.872;2023-12-29T11:56:53;2.70;;;1.43;;
4674;SDS011;2351;50.812;12.872;2023-12-29T11:59:26;1.53;;;1.43;;
4674;SDS011;2351;50.812;12.872;2023-12-29T12:01:58;1.80;;;0.90;;
4674;SDS011;2351;50.812;12.872;2023-12-29T12:04:37;1.07;;;1.00;;
4674;SDS011;2351;50.812;12.872;2023-12-29T12:07:15;2.37;;;1.13;;
4674;SDS011;2351;50.812;12.872;2023-12-29T12:09:48;1.67;;;0.80;;
4674;SDS011;2351;50.812;12.872;2023-12-29T12:18:03;5.13;;;1.27;;
4674;SDS011;2351;50.812;12.872;2023-12-29T12:20:38;1.20;;;1.10;;
4674;SDS011;2351;50.812;12.872;2023-12-29T12:23:12;1.90;;;1.43;;
4674;SDS011;2351;50.812;12.872;2023-12-29T12:25:49;1.77;;;1.10;;
4674;SDS011;2351;50.812;12.872;2023-12-29T12:28:23;1.17;;;1.07;;
4674;SDS011;2351;50.812;12.872;2023-12-29T12:31:04;1.80;;;1.20;;
4674;SDS011;2351;50.812;12.872;2023-12-29T12:33:36;2.07;;;1.27;;
4674;SDS011;2351;50.812;12.872;2023-12-29T12:36:08;1.30;;;1.10;;
4674;SDS011;2351;50.812;12.872;2023-12-29T12:38:41;2.93;;;1.10;;
4674;SDS011;2351;50.812;12.872;2023-12-29T12:41:22;2.87;;;1.50;;
4674;SDS011;2351;50.812;12.872;2023-12-29T12:43:57;1.13;;;1.03;;
4674;SDS011;2351;50.812;12.872;2023-12-29T12:46:35;1.20;;;1.10;;
4674;SDS011;2351;50.812;12.872;2023-12-29T12:49:13;1.00;;;0.90;;
4674;SDS011;2351;50.812;12.872;2023-12-29T12:51:45;3.80;;;1.00;;
4674;SDS011;2351;50.812;12.872;2023-12-29T12:54:18;1.33;;;0.90;;
4674;SDS011;2351;50.812;12.872;2023-12-29T12:56:51;1.80;;;1.13;;
4674;SDS011;2351;50.812;12.872;2023-12-29T12:59:23;1.17;;;1.07;;
4674;SDS011;2351;50.812;12.872;2023-12-29T13:01:55;1.30;;;1.17;;
4674;SDS011;2351;50.812;12.872;2023-12-29T13:04:26;2.20;;;1.97;;
4674;SDS011;2351;50.812;12.872;2023-12-29T13:06:58;2.00;;;0.80;;
4674;SDS011;2351;50.812;12.872;2023-12-29T13:09:31;0.90;;;0.70;;
4674;SDS011;2351;50.812;12.872;2023-12-29T13:12:10;1.27;;;1.17;;
4674;SDS011;2351;50.812;12.872;2023-12-29T13:14:42;3.50;;;1.60;;
4674;SDS011;2351;50.812;12.872;2023-12-29T13:17:15;5.87;;;1.73;;
4674;SDS011;2351;50.812;12.872;2023-12-29T13:22:27;2.67;;;1.20;;
4674;SDS011;2351;50.812;12.872;2023-12-29T13:25:01;1.17;;;1.07;;
4674;SDS011;2351;50.812;12.872;2023-12-29T13:27:37;1.20;;;1.10;;
4674;SDS011;2351;50.812;12.872;2023-12-29T13:30:10;1.30;;;1.20;;
4674;SDS011;2351;50.812;12.872;2023-12-29T13:32:45;1.67;;;1.50;;
4674;SDS011;2351;50.812;12.872;2023-12-29T13:35:18;2.67;;;1.37;;
4674;SDS011;2351;50.812;12.872;2023-12-29T13:37:55;2.00;;;1.20;;
4674;SDS011;2351;50.812;12.872;2023-12-29T13:40:38;7.50;;;2.43;;
4674;SDS011;2351;50.812;12.872;2023-12-29T13:43:13;5.30;;;2.30;;
4674;SDS011;2351;50.812;12.872;2023-12-29T13:45:48;4.33;;;1.80;;
4674;SDS011;2351;50.812;12.872;2023-12-29T13:48:20;5.90;;;2.07;;
4674;SDS011;2351;50.812;12.872;2023-12-29T13:50:52;5.53;;;1.97;;
4674;SDS011;2351;50.812;12.872;2023-12-29T13:53:24;4.10;;;1.10;;
4674;SDS011;2351;50.812;12.872;2023-12-29T13:56:06;3.47;;;1.80;;
4674;SDS011;2351;50.812;12.872;2023-12-29T13:58:38;2.87;;;1.23;;
4674;SDS011;2351;50.812;12.872;2023-12-29T14:01:10;3.70;;;1.93;;
4674;SDS011;2351;50.812;12.872;2023-12-29T14:03:46;6.30;;;3.03;;
4674;SDS011;2351;50.812;12.872;2023-12-29T14:06:22;5.80;;;1.83;;
4674;SDS011;2351;50.812;12.872;2023-12-29T14:09:00;1.67;;;1.17;;
4674;SDS011;2351;50.812;12.872;2023-12-29T14:11:33;2.80;;;1.57;;
4674;SDS011;2351;50.812;12.872;2023-12-29T14:14:06;2.27;;;1.20;;
4674;SDS011;2351;50.812;12.872;2023-12-29T14:16:38;1.33;;;0.97;;
4674;SDS011;2351;50.812;12.872;2023-12-29T14:19:10;1.63;;;0.80;;
4674;SDS011;2351;50.812;12.872;2023-12-29T14:21:42;0.80;;;0.80;;
4674;SDS011;2351;50.812;12.872;2023-12-29T14:24:14;1.87;;;1.07;;
4674;SDS011;2351;50.812;12.872;2023-12-29T14:26:57;1.17;;;1.03;;
4674;SDS011;2351;50.812;12.872;2023-12-29T14:29:29;1.30;;;0.90;;
4674;SDS011;2351;50.812;12.872;2023-12-29T14:32:11;2.20;;;1.23;;
4674;SDS011;2351;50.812;12.872;2023-12-29T14:34:42;1.50;;;1.20;;
4674;SDS011;2351;50.812;12.872;2023-12-29T14:37:16;1.10;;;1.00;;
4674;SDS011;2351;50.812;12.872;2023-12-29T14:39:48;2.30;;;1.13;;
4674;SDS011;2351;50.812;12.872;2023-12-29T14:42:21;2.60;;;1.03;;
4674;SDS011;2351;50.812;12.872;2023-12-29T14:44:53;3.00;;;1.70;;
4674;SDS011;2351;50.812;12.872;2023-12-29T14:47:25;1.37;;;1.10;;
4674;SDS011;2351;50.812;12.872;2023-12-29T14:49:56;1.60;;;1.10;;
4674;SDS011;2351;50.812;12.872;2023-12-29T14:52:28;3.57;;;0.80;;
4674;SDS011;2351;50.812;12.872;2023-12-29T14:55:00;1.70;;;1.00;;
4674;SDS011;2351;50.812;12.872;2023-12-29T14:57:33;4.20;;;1.00;;
4674;SDS011;2351;50.812;12.872;2023-12-29T15:00:05;1.30;;;1.10;;
4674;SDS011;2351;50.812;12.872;2023-12-29T15:02:39;1.90;;;1.17;;
4674;SDS011;2351;50.812;12.872;2023-12-29T15:05:12;1.77;;;1.10;;
4674;SDS011;2351;50.812;12.872;2023-12-29T15:07:43;2.10;;;1.37;;
4674;SDS011;2351;50.812;12.872;2023-12-29T15:10:15;1.20;;;1.00;;
4674;SDS011;2351;50.812;12.872;2023-12-29T15:12:48;1.10;;;0.80;;
4674;SDS011;2351;50.812;12.872;2023-12-29T15:15:19;4.60;;;1.10;;
4674;SDS011;2351;50.812;12.872;2023-12-29T15:17:51;1.93;;;0.77;;
4674;SDS011;2351;50.812;12.872;2023-12-29T15:20:23;1.90;;;1.30;;
4674;SDS011;2351;50.812;12.872;2023-12-29T15:22:54;1.00;;;1.00;;
4674;SDS011;2351;50.812;12.872;2023-12-29T15:25:26;0.83;;;0.83;;
4674;SDS011;2351;50.812;12.872;2023-12-29T15:27:59;4.80;;;1.17;;
4674;SDS011;2351;50.812;12.872;2023-12-29T15:30:31;0.87;;;0.87;;
4674;SDS011;2351;50.812;12.872;2023-12-29T15:33:03;1.13;;;1.03;;
4674;SDS011;2351;50.812;12.872;2023-12-29T15:35:34;1.30;;;1.20;;
4674;SDS011;2351;50.812;12.872;2023-12-29T15:38:06;3.30;;;1.10;;
4674;SDS011;2351;50.812;12.872;2023-12-29T15:40:38;1.20;;;1.10;;
4674;SDS011;2351;50.812;12.872;2023-12-29T15:43:11;0.73;;;0.73;;